createdAt,value
2024-03-08T00:01:23.849Z,29.10
2024-03-08T00:03:52.744Z,26.00
2024-03-08T00:06:19.742Z,29.30
2024-03-08T00:08:46.686Z,33.60
2024-03-08T00:11:13.746Z,26.90
2024-03-08T00:13:40.713Z,32.80
2024-03-08T00:16:09.860Z,32.00
2024-03-08T00:18:37.289Z,29.90
2024-03-08T00:21:05.082Z,28.40
2024-03-08T00:23:34.010Z,27.70
2024-03-08T00:26:01.297Z,31.40
2024-03-08T00:28:28.495Z,30.80
2024-03-08T00:30:55.290Z,31.10
2024-03-08T00:33:22.337Z,34.90
2024-03-08T00:35:49.239Z,36.90
2024-03-08T00:38:15.946Z,33.10
2024-03-08T00:40:42.739Z,33.10
2024-03-08T00:43:12.280Z,32.70
2024-03-08T00:45:39.107Z,31.80
2024-03-08T00:48:06.450Z,31.40
2024-03-08T00:50:34.566Z,25.10
2024-03-08T00:53:01.428Z,31.70
2024-03-08T00:55:30.567Z,27.80
2024-03-08T00:58:01.560Z,29.90
2024-03-08T01:00:28.752Z,30.20
2024-03-08T01:02:56.251Z,29.30
2024-03-08T01:05:25.014Z,28.10
2024-03-08T01:07:51.909Z,27.20
2024-03-08T01:10:18.647Z,28.40
2024-03-08T01:12:45.986Z,27.90
2024-03-08T01:15:13.135Z,27.90
2024-03-08T01:17:42.892Z,29.80
2024-03-08T01:20:13.102Z,37.20
2024-03-08T01:22:44.720Z,28.40
2024-03-08T01:25:11.632Z,27.30
2024-03-08T01:27:40.681Z,31.40
2024-03-08T01:30:12.042Z,29.20
2024-03-08T01:32:39.074Z,25.80
2024-03-08T01:35:06.538Z,29.20
2024-03-08T01:37:37.126Z,31.50
2024-03-08T01:40:04.301Z,38.30
2024-03-08T01:44:17.088Z,32.90
2024-03-08T01:46:52.483Z,31.30
2024-03-08T01:49:22.027Z,25.30
2024-03-08T01:51:52.560Z,29.70
2024-03-08T01:54:21.198Z,31.10
2024-03-08T01:56:48.820Z,33.10
2024-03-08T01:59:16.589Z,27.50
2024-03-08T02:01:44.565Z,31.40
2024-03-08T02:04:12.409Z,33.20
2024-03-08T02:06:40.024Z,28.30
2024-03-08T02:09:08.282Z,29.20
2024-03-08T02:11:37.665Z,28.70
2024-03-08T02:14:07.722Z,30.80
2024-03-08T02:16:35.719Z,26.40
2024-03-08T02:19:03.417Z,27.40
2024-03-08T02:21:31.302Z,27.60
2024-03-08T02:23:59.016Z,30.50
2024-03-08T02:26:26.816Z,25.70
2024-03-08T02:28:55.481Z,29.70
2024-03-08T02:31:23.020Z,28.20
2024-03-08T02:33:50.771Z,28.10
2024-03-08T02:36:18.601Z,33.30
2024-03-08T02:38:46.469Z,30.30
2024-03-08T02:41:14.279Z,28.10
2024-03-08T02:43:41.757Z,31.80
2024-03-08T02:46:09.509Z,32.60
2024-03-08T02:48:41.815Z,26.50
2024-03-08T02:51:09.785Z,27.90
2024-03-08T02:53:37.418Z,25.90
2024-03-08T02:56:06.061Z,28.80
2024-03-08T02:58:33.581Z,28.30
2024-03-08T03:01:01.182Z,29.70
2024-03-08T03:03:28.974Z,30.80
2024-03-08T03:05:56.924Z,28.70
2024-03-08T03:08:25.039Z,29.60
2024-03-08T03:10:54.965Z,29.70
2024-03-08T03:13:22.441Z,30.90
2024-03-08T03:15:50.204Z,30.80
2024-03-08T03:18:19.283Z,27.10
2024-03-08T03:20:47.260Z,27.40
2024-03-08T03:23:22.154Z,31.40
2024-03-08T03:25:50.368Z,30.50
2024-03-08T03:28:19.672Z,30.10
2024-03-08T03:30:48.221Z,26.80
2024-03-08T03:33:17.967Z,29.90
2024-03-08T03:35:45.749Z,30.50
2024-03-08T03:38:15.540Z,32.90
2024-03-08T03:40:43.530Z,26.50
2024-03-08T03:43:12.126Z,26.60
2024-03-08T03:45:40.716Z,31.50
2024-03-08T03:48:11.147Z,28.00
2024-03-08T03:50:41.235Z,29.00
2024-03-08T03:53:10.398Z,29.40
2024-03-08T03:55:41.263Z,26.30
2024-03-08T03:58:12.115Z,27.90
2024-03-08T04:00:40.533Z,27.50
2024-03-08T04:03:10.222Z,29.40
2024-03-08T04:05:38.275Z,27.60
2024-03-08T04:08:06.301Z,28.90
2024-03-08T04:10:33.942Z,24.20
2024-03-08T04:13:01.701Z,26.80
2024-03-08T04:15:29.361Z,26.50
2024-03-08T04:17:58.784Z,28.90
2024-03-08T04:20:26.486Z,26.80
2024-03-08T04:22:54.329Z,30.40
2024-03-08T04:25:22.561Z,31.50
2024-03-08T04:27:50.862Z,30.10
2024-03-08T04:30:19.385Z,28.10
2024-03-08T04:32:47.033Z,29.10
2024-03-08T04:35:16.020Z,27.10
2024-03-08T04:37:43.507Z,26.10
2024-03-08T04:40:12.468Z,25.60
2024-03-08T04:42:40.788Z,25.30
2024-03-08T04:45:09.779Z,26.70
2024-03-08T04:47:38.531Z,29.40
2024-03-08T04:50:07.054Z,28.50
2024-03-08T04:52:34.610Z,36.00
2024-03-08T04:55:27.869Z,32.00
2024-03-08T04:57:55.976Z,28.90
2024-03-08T05:00:24.101Z,26.40
2024-03-08T05:02:54.809Z,30.10
2024-03-08T05:05:24.175Z,36.20
2024-03-08T05:07:51.938Z,29.10
2024-03-08T05:10:19.520Z,31.50
2024-03-08T05:12:47.334Z,30.30
2024-03-08T05:15:15.879Z,30.90
2024-03-08T05:17:43.798Z,31.60
2024-03-08T05:20:14.916Z,29.10
2024-03-08T05:22:42.472Z,32.50
2024-03-08T05:25:10.301Z,27.10
2024-03-08T05:27:37.840Z,27.20
2024-03-08T05:30:06.303Z,29.10
2024-03-08T05:32:34.143Z,27.80
2024-03-08T05:35:04.158Z,30.10
2024-03-08T05:37:32.806Z,39.80
2024-03-08T05:40:03.560Z,37.70
2024-03-08T05:42:31.356Z,35.80
2024-03-08T05:45:00.369Z,34.30
2024-03-08T05:47:31.355Z,31.50
2024-03-08T05:49:59.440Z,30.80
2024-03-08T05:55:15.583Z,38.50
2024-03-08T05:57:43.612Z,35.70
2024-03-08T06:00:20.287Z,37.70
2024-03-08T06:02:48.025Z,40.20
2024-03-08T06:05:19.400Z,45.00
2024-03-08T06:07:54.653Z,43.00
2024-03-08T06:10:22.221Z,47.00
2024-03-08T06:12:49.987Z,38.10
2024-03-08T06:15:17.703Z,42.90
2024-03-08T06:17:50.292Z,33.50
2024-03-08T06:20:18.084Z,24.30
2024-03-08T06:22:46.285Z,29.40
2024-03-08T06:25:17.057Z,33.10
2024-03-08T06:27:47.001Z,27.80
2024-03-08T06:30:17.365Z,31.10
2024-03-08T06:32:45.238Z,36.40
2024-03-08T06:35:13.321Z,32.70
2024-03-08T06:37:40.967Z,37.10
2024-03-08T06:40:11.155Z,34.40
2024-03-08T06:42:38.746Z,35.90
2024-03-08T06:45:07.845Z,35.40
2024-03-08T06:47:35.867Z,48.60
2024-03-08T06:50:03.965Z,39.60
2024-03-08T06:52:31.512Z,37.10
2024-03-08T06:54:59.329Z,32.90
2024-03-08T06:57:27.035Z,29.60
2024-03-08T06:59:55.817Z,30.80
2024-03-08T07:02:25.899Z,28.10
2024-03-08T07:04:54.321Z,36.10
2024-03-08T07:07:21.797Z,38.80
2024-03-08T07:09:50.652Z,44.50
2024-03-08T07:12:18.505Z,35.50
2024-03-08T07:14:46.816Z,35.10
2024-03-08T07:17:14.608Z,33.20
2024-03-08T07:19:42.356Z,36.50
2024-03-08T07:22:10.039Z,35.20
2024-03-08T07:24:55.904Z,38.60
2024-03-08T07:27:23.642Z,40.30
2024-03-08T07:29:51.393Z,35.90
2024-03-08T07:32:26.756Z,33.20
2024-03-08T07:34:54.374Z,29.50
2024-03-08T07:37:22.025Z,39.20
2024-03-08T07:39:49.606Z,37.60
2024-03-08T07:42:18.373Z,40.20
2024-03-08T07:44:47.798Z,30.10
2024-03-08T07:47:15.532Z,38.70
2024-03-08T07:49:43.090Z,34.80
2024-03-08T07:52:17.450Z,32.00
2024-03-08T07:54:45.414Z,35.30
2024-03-08T07:57:15.351Z,36.90
2024-03-08T07:59:42.959Z,35.30
2024-03-08T08:09:47.044Z,35.10
2024-03-08T08:12:15.381Z,35.00
2024-03-08T08:14:43.088Z,40.60
2024-03-08T08:17:10.762Z,34.20
2024-03-08T08:19:38.403Z,36.50
2024-03-08T08:22:06.039Z,33.80
2024-03-08T08:24:33.750Z,31.60
2024-03-08T08:27:03.708Z,28.90
2024-03-08T08:37:16.304Z,30.30
2024-03-08T08:39:44.695Z,30.40
2024-03-08T08:42:12.463Z,30.70
2024-03-08T08:44:40.468Z,37.10
2024-03-08T08:47:12.944Z,35.10
2024-03-08T08:49:44.399Z,27.80
2024-03-08T08:52:16.610Z,25.20
2024-03-08T08:54:48.798Z,27.90
2024-03-08T08:57:18.625Z,26.70
2024-03-08T08:59:47.026Z,29.40
2024-03-08T09:02:18.660Z,30.90
2024-03-08T09:04:46.764Z,28.90
2024-03-08T09:07:15.010Z,26.90
2024-03-08T09:09:43.451Z,25.40
2024-03-08T09:12:14.605Z,32.80
2024-03-08T09:14:42.591Z,27.60
2024-03-08T09:17:10.308Z,27.50
2024-03-08T09:19:38.050Z,29.20
2024-03-08T09:22:07.970Z,31.30
2024-03-08T09:24:35.701Z,30.50
2024-03-08T09:27:04.424Z,31.30
2024-03-08T09:29:32.197Z,36.40
2024-03-08T09:31:59.882Z,34.70
2024-03-08T09:34:32.821Z,31.10
2024-03-08T09:37:10.277Z,32.40
2024-03-08T09:46:01.823Z,35.50
2024-03-08T09:48:32.542Z,32.20
2024-03-08T09:51:00.301Z,31.90
2024-03-08T09:53:27.927Z,28.20
2024-03-08T09:55:56.155Z,25.70
2024-03-08T09:58:37.978Z,30.30
2024-03-08T10:01:08.569Z,34.40
2024-03-08T10:03:36.222Z,31.30
2024-03-08T10:06:04.050Z,33.30
2024-03-08T10:08:33.900Z,29.10
2024-03-08T10:11:02.213Z,31.30
2024-03-08T10:13:30.368Z,33.90
2024-03-08T10:15:58.038Z,37.30
2024-03-08T10:18:31.092Z,31.20
2024-03-08T10:21:16.598Z,34.50
2024-03-08T10:23:46.946Z,33.80
2024-03-08T10:26:17.553Z,35.00
2024-03-08T10:28:52.468Z,34.90
2024-03-08T10:31:20.977Z,36.60
2024-03-08T10:33:48.842Z,38.00
2024-03-08T10:36:16.663Z,29.60
2024-03-08T10:38:48.809Z,35.70
2024-03-08T10:41:18.374Z,32.60
2024-03-08T10:44:24.344Z,30.50
2024-03-08T10:46:58.320Z,34.10
2024-03-08T10:49:27.533Z,29.10
2024-03-08T10:51:55.197Z,31.60
2024-03-08T10:54:22.775Z,29.90
2024-03-08T10:56:51.778Z,29.40
2024-03-08T10:59:20.131Z,35.90
2024-03-08T11:01:48.228Z,32.90
2024-03-08T11:04:17.044Z,29.10
2024-03-08T11:06:46.614Z,30.60
2024-03-08T11:09:33.054Z,33.10
2024-03-08T11:12:36.268Z,49.40
2024-03-08T11:15:16.090Z,47.80
2024-03-08T11:17:50.353Z,34.70
2024-03-08T11:20:22.721Z,29.50
2024-03-08T11:23:02.259Z,29.60
2024-03-08T11:25:43.011Z,31.50
2024-03-08T11:28:19.637Z,36.10
2024-03-08T11:31:00.845Z,34.70
2024-03-08T11:33:29.533Z,51.00
2024-03-08T11:36:13.098Z,46.20
2024-03-08T11:38:50.402Z,41.10
2024-03-08T11:41:19.554Z,32.50
2024-03-08T11:43:47.796Z,30.50
2024-03-08T11:46:16.452Z,34.60
2024-03-08T11:48:45.042Z,30.80
2024-03-08T11:51:13.074Z,34.40
2024-03-08T11:53:43.306Z,31.70
2024-03-08T11:56:13.731Z,38.90
2024-03-08T11:58:52.658Z,34.80
2024-03-08T12:01:20.272Z,40.60
2024-03-08T12:03:53.695Z,44.50
2024-03-08T12:06:21.305Z,34.00
2024-03-08T12:08:50.460Z,33.90
2024-03-08T12:11:24.997Z,36.00
2024-03-08T12:13:53.632Z,38.30
2024-03-08T12:16:23.001Z,39.10
2024-03-08T12:18:53.164Z,34.70
2024-03-08T12:21:26.454Z,32.00
2024-03-08T12:24:04.965Z,36.40
2024-03-08T12:26:33.805Z,36.70
2024-03-08T12:29:26.551Z,34.30
2024-03-08T12:31:55.649Z,33.70
2024-03-08T12:34:24.518Z,34.10
2024-03-08T12:36:55.346Z,31.50
2024-03-08T12:39:29.543Z,31.20
2024-03-08T12:42:00.742Z,33.60
2024-03-08T12:44:30.083Z,35.60
2024-03-08T12:47:06.336Z,43.80
2024-03-08T12:49:34.336Z,28.40
2024-03-08T12:52:02.849Z,33.80
2024-03-08T12:54:32.292Z,26.00
2024-03-08T12:57:00.052Z,27.90
2024-03-08T12:59:27.688Z,32.30
2024-03-08T13:01:59.671Z,27.20
2024-03-08T13:04:27.342Z,29.20
2024-03-08T13:06:55.986Z,29.20
2024-03-08T13:09:23.979Z,27.90
2024-03-08T13:11:54.340Z,36.00
2024-03-08T13:14:22.631Z,30.80
2024-03-08T13:16:50.331Z,32.30
2024-03-08T13:19:18.120Z,27.00
2024-03-08T13:21:50.707Z,28.40
2024-03-08T13:24:20.243Z,24.00
2024-03-08T13:26:48.649Z,27.50
2024-03-08T13:29:16.319Z,28.70
2024-03-08T13:31:46.662Z,27.40
2024-03-08T13:34:17.697Z,24.90
2024-03-08T13:36:47.738Z,30.00
2024-03-08T13:39:19.420Z,30.80
2024-03-08T13:41:47.838Z,29.10
2024-03-08T13:44:15.579Z,42.90
2024-03-08T13:46:44.752Z,36.60
2024-03-08T13:49:14.910Z,30.10
2024-03-08T13:51:53.241Z,47.30
2024-03-08T13:54:20.753Z,28.70
2024-03-08T13:56:48.660Z,28.50
2024-03-08T14:02:14.935Z,33.50
2024-03-08T14:04:43.664Z,30.60
2024-03-08T14:07:12.465Z,31.40
2024-03-08T14:09:44.488Z,33.60
2024-03-08T14:12:12.309Z,27.00
2024-03-08T14:14:43.270Z,29.90
2024-03-08T14:17:12.590Z,36.60
2024-03-08T14:19:49.846Z,27.20
2024-03-08T14:22:21.476Z,30.10
2024-03-08T14:25:09.763Z,36.70
2024-03-08T14:27:41.010Z,36.90
2024-03-08T14:30:11.740Z,28.30
2024-03-08T14:32:40.238Z,33.90
2024-03-08T14:35:08.360Z,31.00
2024-03-08T14:37:36.060Z,31.10
2024-03-08T14:40:12.337Z,33.00
2024-03-08T14:42:44.206Z,34.50
2024-03-08T14:45:11.914Z,31.70
2024-03-08T14:47:39.584Z,26.70
2024-03-08T14:50:10.953Z,25.60
2024-03-08T14:52:41.142Z,27.70
2024-03-08T14:55:09.934Z,25.00
2024-03-08T14:57:37.602Z,30.10
2024-03-08T15:00:08.480Z,51.90
2024-03-08T15:02:38.039Z,33.00
2024-03-08T15:05:15.342Z,32.70
2024-03-08T15:07:44.015Z,25.10
2024-03-08T15:10:21.871Z,36.70
2024-03-08T15:12:52.612Z,29.10
2024-03-08T15:15:21.671Z,27.40
2024-03-08T15:17:49.262Z,25.60
2024-03-08T15:20:31.451Z,27.20
2024-03-08T15:23:00.514Z,30.40
2024-03-08T15:25:32.551Z,26.00
2024-03-08T15:28:00.219Z,29.30
2024-03-08T15:30:30.296Z,29.20
2024-03-08T15:32:58.893Z,28.80
2024-03-08T15:35:27.356Z,28.70
2024-03-08T15:37:58.982Z,27.80
2024-03-08T15:42:57.148Z,28.10
2024-03-08T15:45:33.861Z,130.90
2024-03-08T15:48:06.410Z,84.00
2024-03-08T15:50:36.522Z,37.50
2024-03-08T15:53:05.590Z,37.50
2024-03-08T15:55:35.901Z,31.30
2024-03-08T15:58:04.412Z,32.10
2024-03-08T16:00:35.844Z,28.90
2024-03-08T16:03:13.344Z,36.60
2024-03-08T16:05:47.303Z,43.00
2024-03-08T16:08:17.007Z,38.10
2024-03-08T16:10:52.306Z,43.20
2024-03-08T16:13:21.664Z,43.10
2024-03-08T16:15:58.387Z,46.60
2024-03-08T16:18:29.170Z,46.60
2024-03-08T16:20:56.948Z,66.50
2024-03-08T16:23:25.340Z,64.10
2024-03-08T16:25:54.812Z,60.40
2024-03-08T16:28:31.152Z,60.30
2024-03-08T16:31:01.368Z,60.90
2024-03-08T16:33:31.362Z,57.20
2024-03-08T16:35:59.719Z,60.10
2024-03-08T16:38:29.464Z,56.20
2024-03-08T16:40:58.770Z,42.90
2024-03-08T16:43:26.554Z,46.70
2024-03-08T16:45:55.297Z,47.60
2024-03-08T16:48:24.992Z,42.20
2024-03-08T16:50:56.118Z,44.50
2024-03-08T16:53:30.198Z,52.30
2024-03-08T16:55:59.254Z,59.20
2024-03-08T16:58:27.028Z,53.80
2024-03-08T17:00:54.676Z,55.30
2024-03-08T17:03:25.218Z,58.20
2024-03-08T17:05:57.147Z,51.80
2024-03-08T17:08:36.901Z,57.50
2024-03-08T17:11:21.991Z,47.70
2024-03-08T17:13:56.206Z,63.20
2024-03-08T17:16:26.650Z,62.50
2024-03-08T17:18:55.303Z,49.20
2024-03-08T17:21:23.239Z,63.80
2024-03-08T17:23:50.986Z,60.90
2024-03-08T17:26:19.974Z,71.30
2024-03-08T17:28:49.295Z,64.10
2024-03-08T17:31:17.111Z,68.30
2024-03-08T17:33:48.891Z,71.00
2024-03-08T17:36:18.038Z,75.20
2024-03-08T17:38:49.234Z,76.90
2024-03-08T17:41:41.931Z,69.60
2024-03-08T17:44:34.848Z,66.30
2024-03-08T17:47:05.875Z,76.40
2024-03-08T17:49:33.690Z,85.70
2024-03-08T17:52:05.669Z,81.20
2024-03-08T17:54:33.862Z,93.60
2024-03-08T17:57:02.364Z,90.10
2024-03-08T17:59:31.047Z,84.40
2024-03-08T18:01:59.149Z,108.90
2024-03-08T18:04:27.151Z,103.60
2024-03-08T18:06:54.885Z,100.80
2024-03-08T18:09:24.632Z,92.30
2024-03-08T18:11:52.194Z,293.40
2024-03-08T18:14:19.840Z,333.20
2024-03-08T18:16:47.522Z,221.30
2024-03-08T18:19:20.564Z,274.10
2024-03-08T18:21:49.626Z,300.30
2024-03-08T18:24:19.439Z,101.70
2024-03-08T18:26:47.942Z,86.00
2024-03-08T18:29:17.129Z,90.40
2024-03-08T18:31:49.593Z,127.20
2024-03-08T18:34:21.184Z,103.60
2024-03-08T18:36:49.797Z,109.60
2024-03-08T18:39:17.785Z,93.10
2024-03-08T18:41:45.538Z,86.00
2024-03-08T18:44:14.921Z,89.60
2024-03-08T18:46:42.651Z,105.50
2024-03-08T18:49:10.130Z,97.40
2024-03-08T18:51:37.658Z,102.20
2024-03-08T18:54:05.256Z,101.60
2024-03-08T18:56:32.760Z,107.60
2024-03-08T18:59:00.438Z,92.30
2024-03-08T19:04:25.148Z,99.40
2024-03-08T19:13:38.729Z,99.90
2024-03-08T19:16:07.537Z,97.10
2024-03-08T19:18:36.856Z,95.70
2024-03-08T19:21:04.653Z,93.10
2024-03-08T19:23:36.316Z,88.20
2024-03-08T19:31:58.734Z,86.90
2024-03-08T19:34:29.436Z,89.70
2024-03-08T19:36:58.613Z,79.10
2024-03-08T19:39:26.756Z,83.50
2024-03-08T19:41:54.379Z,84.30
2024-03-08T19:44:22.068Z,94.70
2024-03-08T19:46:49.791Z,91.30
2024-03-08T19:49:18.248Z,97.40
2024-03-08T19:51:47.301Z,103.50
2024-03-08T19:54:16.074Z,106.70
2024-03-08T19:56:47.178Z,99.50
2024-03-08T19:59:14.882Z,116.30
2024-03-08T20:01:42.920Z,119.30
2024-03-08T20:04:10.704Z,120.10
2024-03-08T20:06:41.224Z,133.60
2024-03-08T20:09:08.706Z,131.20
2024-03-08T20:11:40.001Z,120.30
2024-03-08T20:14:07.934Z,121.00
2024-03-08T20:16:36.231Z,110.50
2024-03-08T20:19:04.556Z,125.00
2024-03-08T20:21:32.181Z,139.20
2024-03-08T20:24:02.636Z,139.80
2024-03-08T20:26:30.224Z,137.80
2024-03-08T20:28:59.066Z,140.40
2024-03-08T20:31:26.789Z,146.00
2024-03-08T20:33:54.465Z,138.10
2024-03-08T20:36:21.996Z,136.40
2024-03-08T20:38:49.526Z,128.90
2024-03-08T20:41:17.539Z,131.20
2024-03-08T20:43:45.724Z,134.50
2024-03-08T20:46:16.707Z,128.70
2024-03-08T20:48:46.985Z,132.70
2024-03-08T20:51:14.741Z,138.20
2024-03-08T20:53:42.193Z,126.90
2024-03-08T20:56:09.795Z,132.20
2024-03-08T20:58:37.568Z,131.30
2024-03-08T21:01:10.011Z,112.40
2024-03-08T21:03:39.082Z,114.40
2024-03-08T21:06:08.762Z,103.10
2024-03-08T21:08:39.409Z,110.80
2024-03-08T21:11:07.308Z,106.00
2024-03-08T21:13:37.151Z,97.90
2024-03-08T21:16:06.867Z,112.30
2024-03-08T21:18:34.662Z,111.70
2024-03-08T21:21:04.777Z,110.00
2024-03-08T21:23:33.497Z,119.10
2024-03-08T21:26:02.592Z,101.60
2024-03-08T21:28:31.275Z,108.70
2024-03-08T21:31:02.139Z,100.50
2024-03-08T21:33:29.905Z,105.60
2024-03-08T21:35:57.402Z,102.40
2024-03-08T21:38:27.046Z,102.40
2024-03-08T21:41:02.474Z,96.50
2024-03-08T21:43:36.297Z,95.00
2024-03-08T21:46:04.405Z,96.40
2024-03-08T21:48:32.068Z,94.70
2024-03-08T21:50:59.731Z,95.00
2024-03-08T21:53:35.702Z,108.90
2024-03-08T21:56:04.140Z,103.20
2024-03-08T21:58:34.929Z,121.40
2024-03-08T22:01:06.258Z,117.70
2024-03-08T22:03:36.848Z,113.60
2024-03-08T22:06:11.674Z,122.80
2024-03-08T22:08:42.958Z,115.60
2024-03-08T22:11:11.344Z,113.50
2024-03-08T22:13:39.142Z,115.60
2024-03-08T22:16:06.803Z,119.10
2024-03-08T22:18:35.894Z,109.70
2024-03-08T22:21:04.158Z,118.60
2024-03-08T22:23:34.049Z,114.10
2024-03-08T22:26:01.915Z,112.10
2024-03-08T22:28:29.473Z,137.30
2024-03-08T22:30:57.055Z,132.80
2024-03-08T22:33:26.373Z,126.80
2024-03-08T22:35:55.133Z,131.20
2024-03-08T22:38:23.001Z,140.50
2024-03-08T22:40:51.396Z,139.60
2024-03-08T22:43:19.008Z,133.90
2024-03-08T22:45:48.328Z,129.90
2024-03-08T22:48:15.886Z,115.70
2024-03-08T22:50:43.621Z,125.00
2024-03-08T22:53:14.777Z,116.50
2024-03-08T22:55:43.409Z,117.20
2024-03-08T22:58:11.850Z,123.30
2024-03-08T23:00:39.377Z,126.60
2024-03-08T23:03:11.651Z,126.70
2024-03-08T23:05:41.511Z,116.20
2024-03-08T23:08:09.508Z,110.90
2024-03-08T23:10:40.658Z,101.80
2024-03-08T23:13:11.061Z,100.90
2024-03-08T23:15:42.733Z,99.70
2024-03-08T23:18:12.743Z,92.70
2024-03-08T23:20:45.825Z,92.60
2024-03-08T23:23:13.685Z,87.50
2024-03-08T23:25:41.591Z,92.60
2024-03-08T23:28:09.754Z,87.60
2024-03-08T23:30:45.713Z,91.80
2024-03-08T23:33:14.499Z,90.40
2024-03-08T23:35:45.000Z,95.90
2024-03-08T23:38:15.997Z,100.50
2024-03-08T23:40:43.824Z,98.00
2024-03-08T23:43:11.621Z,89.80
2024-03-08T23:45:39.634Z,89.60
2024-03-08T23:48:07.977Z,88.00
2024-03-08T23:50:35.910Z,86.40
2024-03-08T23:53:07.208Z,79.00
2024-03-08T23:55:36.063Z,86.70
2024-03-08T23:58:11.098Z,82.60
